Main page
METAR-TAF:

METAR-TAF

Airports :

Aurillac – Tronquières Airport

Aurillac, France

latitude: 44-53N, longitude: 002-25E, elevation: 639 m

Current weather observation

The report was made 42 minutes ago, at 09:00 UTC
Temperature 9°C
Humidity 93%
Pressure 1008 hPa
Visibility 10 km or more
Broken clouds at a height of 700 ft
Overcast at a height of 2000 ft

METAR: LFLW 190900Z AUTO /////KT 9999 BKN007 OVC020 09/08 Q1008

Time: 11:42 (09:42 UTC)

Forecast

The report was made 1 hour and 42 minutes ago, at 08:00 UTC
Forecast valid from 19 at 09 UTC to 19 at 18 UTC
Wind 6 kt from the West/Northwest
Visibility 10 km or more
Broken clouds at a height of 500 ft
Overcast at a height of 1300 ft
Probability 40% :
Temporary
from 19 at 12 UTC to 19 at 18 UTC
Broken clouds at a height of 400 ft
Scattered clouds at a height of 1000 ft, Towering cumulus.
Overcast at a height of 2000 ft
rain showers

TAF: LFLW 190800Z 1909/1918 30006KT 9999 BKN005 OVC013 PROB40 TEMPO 1912/1918 SHRA BKN004 SCT010TCU OVC020

Weather observations and forecasts of more than 4000 airports (METAR and TAF reports).

The available stations are represented by yellow and red dots on the map.

Hover mouse over dot to see the name of the station.

Then click to see weather observations and forecasts.

To change the map : click on the green buttons with a black cross to zoom in, on the green button with a dash to zoom out, or on the green arrows for adjacent maps.


METAR-TAF: